sensor_id;sensor_type;location;lat;lon;timestamp;pressure;altitude;pressure_sealevel;temperature;humidity
36788;BME280;22738;45.560;9.434;2023-04-09T00:00:43;100146.78;;;10.06;100.00
36788;BME280;22738;45.560;9.434;2023-04-09T00:07:24;100139.94;;;10.05;100.00
36788;BME280;22738;45.560;9.434;2023-04-09T00:14:05;100150.47;;;10.02;100.00
36788;BME280;22738;45.560;9.434;2023-04-09T00:20:47;100147.50;;;9.94;100.00
36788;BME280;22738;45.560;9.434;2023-04-09T00:27:28;100145.97;;;9.90;100.00
36788;BME280;22738;45.560;9.434;2023-04-09T00:34:09;100132.50;;;9.99;100.00
36788;BME280;22738;45.560;9.434;2023-04-09T00:40:51;100139.00;;;10.06;100.00
36788;BME280;22738;45.560;9.434;2023-04-09T00:47:34;100137.13;;;9.94;100.00
36788;BME280;22738;45.560;9.434;2023-04-09T00:54:15;100141.63;;;9.91;100.00
36788;BME280;22738;45.560;9.434;2023-04-09T01:00:57;100138.72;;;9.81;100.00
36788;BME280;22738;45.560;9.434;2023-04-09T01:14:31;100150.09;;;9.63;100.00
36788;BME280;22738;45.560;9.434;2023-04-09T01:21:25;100159.19;;;9.55;100.00
36788;BME280;22738;45.560;9.434;2023-04-09T01:28:26;100158.84;;;9.29;100.00
36788;BME280;22738;45.560;9.434;2023-04-09T01:35:12;100146.81;;;9.13;100.00
36788;BME280;22738;45.560;9.434;2023-04-09T01:41:54;100161.56;;;9.11;100.00
36788;BME280;22738;45.560;9.434;2023-04-09T01:48:36;100160.97;;;9.06;100.00
36788;BME280;22738;45.560;9.434;2023-04-09T01:55:18;100159.28;;;9.05;100.00
36788;BME280;22738;45.560;9.434;2023-04-09T02:02:05;100164.28;;;8.92;100.00
36788;BME280;22738;45.560;9.434;2023-04-09T02:08:50;100163.75;;;8.86;100.00
36788;BME280;22738;45.560;9.434;2023-04-09T02:15:33;100163.44;;;8.92;100.00
36788;BME280;22738;45.560;9.434;2023-04-09T02:22:16;100164.66;;;8.85;100.00
36788;BME280;22738;45.560;9.434;2023-04-09T02:28:59;100171.53;;;8.86;100.00
36788;BME280;22738;45.560;9.434;2023-04-09T02:35:40;100174.25;;;8.83;100.00
36788;BME280;22738;45.560;9.434;2023-04-09T02:42:21;100175.75;;;8.87;100.00
36788;BME280;22738;45.560;9.434;2023-04-09T02:49:02;100174.09;;;8.86;100.00
36788;BME280;22738;45.560;9.434;2023-04-09T02:55:43;100176.09;;;8.63;100.00
36788;BME280;22738;45.560;9.434;2023-04-09T03:02:24;100165.16;;;8.58;100.00
36788;BME280;22738;45.560;9.434;2023-04-09T03:09:05;100177.00;;;8.63;100.00
36788;BME280;22738;45.560;9.434;2023-04-09T03:15:50;100167.28;;;8.50;100.00
36788;BME280;22738;45.560;9.434;2023-04-09T03:22:36;100166.75;;;8.44;100.00
36788;BME280;22738;45.560;9.434;2023-04-09T03:29:20;100162.56;;;8.41;100.00
36788;BME280;22738;45.560;9.434;2023-04-09T03:36:02;100164.09;;;8.28;100.00
36788;BME280;22738;45.560;9.434;2023-04-09T03:43:04;100167.22;;;8.35;100.00
36788;BME280;22738;45.560;9.434;2023-04-09T03:49:49;100168.63;;;8.23;100.00
36788;BME280;22738;45.560;9.434;2023-04-09T03:56:40;100167.53;;;8.10;100.00
36788;BME280;22738;45.560;9.434;2023-04-09T04:03:26;100178.84;;;8.08;100.00
36788;BME280;22738;45.560;9.434;2023-04-09T04:10:28;100178.00;;;8.07;100.00
36788;BME280;22738;45.560;9.434;2023-04-09T04:17:09;100180.06;;;8.18;100.00
36788;BME280;22738;45.560;9.434;2023-04-09T04:23:51;100186.69;;;8.23;100.00
36788;BME280;22738;45.560;9.434;2023-04-09T04:30:40;100192.50;;;8.28;100.00
36788;BME280;22738;45.560;9.434;2023-04-09T04:37:22;100190.84;;;8.09;100.00
36788;BME280;22738;45.560;9.434;2023-04-09T04:44:08;100193.63;;;8.04;100.00
36788;BME280;22738;45.560;9.434;2023-04-09T04:51:00;100204.69;;;7.89;100.00
36788;BME280;22738;45.560;9.434;2023-04-09T04:57:49;100208.53;;;7.99;100.00
36788;BME280;22738;45.560;9.434;2023-04-09T05:04:31;100216.53;;;7.93;100.00
36788;BME280;22738;45.560;9.434;2023-04-09T05:11:14;100216.28;;;8.16;100.00
36788;BME280;22738;45.560;9.434;2023-04-09T05:18:00;100219.41;;;8.23;100.00
36788;BME280;22738;45.560;9.434;2023-04-09T05:24:42;100229.91;;;8.55;100.00
36788;BME280;22738;45.560;9.434;2023-04-09T05:31:26;100237.69;;;9.05;100.00
36788;BME280;22738;45.560;9.434;2023-04-09T05:38:16;100246.06;;;9.43;100.00
36788;BME280;22738;45.560;9.434;2023-04-09T05:44:59;100257.72;;;9.67;100.00
36788;BME280;22738;45.560;9.434;2023-04-09T05:51:41;100270.78;;;9.97;100.00
36788;BME280;22738;45.560;9.434;2023-04-09T05:58:27;100267.13;;;10.17;100.00
36788;BME280;22738;45.560;9.434;2023-04-09T06:05:11;100273.94;;;10.49;100.00
36788;BME280;22738;45.560;9.434;2023-04-09T06:11:53;100285.13;;;10.79;100.00
36788;BME280;22738;45.560;9.434;2023-04-09T06:18:36;100301.31;;;10.98;100.00
36788;BME280;22738;45.560;9.434;2023-04-09T06:25:17;100293.69;;;10.81;100.00
36788;BME280;22738;45.560;9.434;2023-04-09T06:31:59;100288.72;;;10.92;100.00
36788;BME280;22738;45.560;9.434;2023-04-09T06:38:40;100283.19;;;14.28;100.00
36788;BME280;22738;45.560;9.434;2023-04-09T06:45:21;100296.19;;;18.58;77.72
36788;BME280;22738;45.560;9.434;2023-04-09T06:52:03;100304.97;;;20.61;61.56
36788;BME280;22738;45.560;9.434;2023-04-09T06:58:44;100320.38;;;22.86;52.11
36788;BME280;22738;45.560;9.434;2023-04-09T07:05:25;100326.63;;;23.73;48.42
36788;BME280;22738;45.560;9.434;2023-04-09T07:12:06;100333.78;;;24.03;47.18
36788;BME280;22738;45.560;9.434;2023-04-09T07:18:47;100325.50;;;24.15;45.66
36788;BME280;22738;45.560;9.434;2023-04-09T07:25:28;100333.28;;;25.00;43.69
36788;BME280;22738;45.560;9.434;2023-04-09T07:32:09;100340.22;;;24.78;43.75
36788;BME280;22738;45.560;9.434;2023-04-09T07:38:51;100324.97;;;24.72;44.88
36788;BME280;22738;45.560;9.434;2023-04-09T07:45:32;100337.81;;;25.95;42.13
36788;BME280;22738;45.560;9.434;2023-04-09T07:52:13;100340.19;;;23.78;44.72
36788;BME280;22738;45.560;9.434;2023-04-09T07:58:54;100339.97;;;24.88;43.78
36788;BME280;22738;45.560;9.434;2023-04-09T08:05:35;100348.34;;;24.77;45.15
36788;BME280;22738;45.560;9.434;2023-04-09T08:12:17;100348.00;;;23.31;47.74
36788;BME280;22738;45.560;9.434;2023-04-09T08:18:58;100355.25;;;22.31;50.31
36788;BME280;22738;45.560;9.434;2023-04-09T08:25:39;100362.56;;;20.74;59.17
36788;BME280;22738;45.560;9.434;2023-04-09T08:32:21;100360.66;;;20.12;64.72
36788;BME280;22738;45.560;9.434;2023-04-09T08:39:02;100367.59;;;20.67;64.55
36788;BME280;22738;45.560;9.434;2023-04-09T08:45:43;100358.31;;;19.72;87.75
36788;BME280;22738;45.560;9.434;2023-04-09T08:52:32;100365.44;;;19.99;74.00
36788;BME280;22738;45.560;9.434;2023-04-09T08:59:16;100362.53;;;18.79;88.80
36788;BME280;22738;45.560;9.434;2023-04-09T09:05:58;100372.25;;;17.99;100.00
36788;BME280;22738;45.560;9.434;2023-04-09T09:12:41;100366.34;;;18.06;100.00
36788;BME280;22738;45.560;9.434;2023-04-09T09:26:19;100368.00;;;18.07;100.00
36788;BME280;22738;45.560;9.434;2023-04-09T09:33:09;100363.00;;;18.34;100.00
36788;BME280;22738;45.560;9.434;2023-04-09T09:39:53;100356.47;;;18.78;94.79
36788;BME280;22738;45.560;9.434;2023-04-09T09:46:38;100353.84;;;19.26;88.49
36788;BME280;22738;45.560;9.434;2023-04-09T09:53:21;100347.88;;;20.71;70.84
36788;BME280;22738;45.560;9.434;2023-04-09T10:00:03;100345.66;;;19.19;70.20
36788;BME280;22738;45.560;9.434;2023-04-09T10:06:50;100341.59;;;20.54;60.91
36788;BME280;22738;45.560;9.434;2023-04-09T10:13:38;100340.53;;;20.47;66.06
36788;BME280;22738;45.560;9.434;2023-04-09T10:20:26;100329.25;;;20.37;61.46
36788;BME280;22738;45.560;9.434;2023-04-09T10:27:14;100328.44;;;20.54;62.71
36788;BME280;22738;45.560;9.434;2023-04-09T10:34:02;100322.03;;;19.75;63.83
36788;BME280;22738;45.560;9.434;2023-04-09T10:40:47;100311.53;;;19.75;62.02
36788;BME280;22738;45.560;9.434;2023-04-09T10:47:34;100318.81;;;20.63;60.24
36788;BME280;22738;45.560;9.434;2023-04-09T11:01:22;100293.22;;;21.34;55.83
36788;BME280;22738;45.560;9.434;2023-04-09T11:14:44;100270.47;;;20.90;54.00
36788;BME280;22738;45.560;9.434;2023-04-09T11:21:26;100269.19;;;19.96;54.66
36788;BME280;22738;45.560;9.434;2023-04-09T11:28:12;100270.34;;;19.57;55.61
36788;BME280;22738;45.560;9.434;2023-04-09T11:34:53;100261.31;;;20.41;54.84
36788;BME280;22738;45.560;9.434;2023-04-09T11:41:35;100254.72;;;19.55;58.17
36788;BME280;22738;45.560;9.434;2023-04-09T11:48:17;100245.88;;;20.46;53.02
36788;BME280;22738;45.560;9.434;2023-04-09T11:55:04;100238.72;;;20.56;52.51
36788;BME280;22738;45.560;9.434;2023-04-09T12:01:49;100236.31;;;20.80;52.15
36788;BME280;22738;45.560;9.434;2023-04-09T12:08:35;100232.66;;;20.11;53.92
36788;BME280;22738;45.560;9.434;2023-04-09T12:15:23;100231.66;;;20.39;54.17
36788;BME280;22738;45.560;9.434;2023-04-09T12:22:05;100221.84;;;20.84;50.03
36788;BME280;22738;45.560;9.434;2023-04-09T12:28:46;100211.94;;;20.43;49.97
36788;BME280;22738;45.560;9.434;2023-04-09T12:35:27;100213.50;;;19.73;51.61
36788;BME280;22738;45.560;9.434;2023-04-09T12:42:08;100213.31;;;19.11;52.05
36788;BME280;22738;45.560;9.434;2023-04-09T12:48:50;100199.41;;;18.43;55.97
36788;BME280;22738;45.560;9.434;2023-04-09T12:55:31;100202.72;;;18.84;53.04
36788;BME280;22738;45.560;9.434;2023-04-09T13:02:12;100196.56;;;19.12;52.65
36788;BME280;22738;45.560;9.434;2023-04-09T13:08:53;100194.25;;;19.46;51.49
36788;BME280;22738;45.560;9.434;2023-04-09T13:15:34;100180.78;;;19.21;51.25
36788;BME280;22738;45.560;9.434;2023-04-09T13:22:15;100174.66;;;19.85;49.16
36788;BME280;22738;45.560;9.434;2023-04-09T13:28:58;100170.59;;;20.08;51.44
36788;BME280;22738;45.560;9.434;2023-04-09T13:35:39;100162.25;;;20.13;49.13
36788;BME280;22738;45.560;9.434;2023-04-09T13:42:20;100146.19;;;20.33;47.64
36788;BME280;22738;45.560;9.434;2023-04-09T13:49:01;100135.72;;;19.71;49.11
36788;BME280;22738;45.560;9.434;2023-04-09T13:55:43;100131.75;;;19.84;49.16
36788;BME280;22738;45.560;9.434;2023-04-09T14:02:33;100125.41;;;19.77;49.63
36788;BME280;22738;45.560;9.434;2023-04-09T14:09:14;100118.78;;;20.09;49.10
36788;BME280;22738;45.560;9.434;2023-04-09T14:15:55;100110.16;;;19.99;49.08
36788;BME280;22738;45.560;9.434;2023-04-09T14:22:36;100098.06;;;20.06;49.36
36788;BME280;22738;45.560;9.434;2023-04-09T14:29:18;100102.22;;;20.26;48.26
36788;BME280;22738;45.560;9.434;2023-04-09T14:35:59;100097.81;;;20.34;45.94
36788;BME280;22738;45.560;9.434;2023-04-09T14:42:40;100097.75;;;19.73;48.89
36788;BME280;22738;45.560;9.434;2023-04-09T14:49:21;100092.28;;;19.84;48.79
36788;BME280;22738;45.560;9.434;2023-04-09T14:56:02;100086.63;;;19.79;48.51
36788;BME280;22738;45.560;9.434;2023-04-09T15:02:43;100080.53;;;19.34;48.84
36788;BME280;22738;45.560;9.434;2023-04-09T15:09:24;100091.31;;;19.13;48.43
36788;BME280;22738;45.560;9.434;2023-04-09T15:16:06;100087.34;;;18.63;49.38
36788;BME280;22738;45.560;9.434;2023-04-09T15:22:48;100084.50;;;18.84;50.22
36788;BME280;22738;45.560;9.434;2023-04-09T15:29:29;100072.84;;;19.23;48.32
36788;BME280;22738;45.560;9.434;2023-04-09T15:36:10;100084.50;;;19.20;48.14
36788;BME280;22738;45.560;9.434;2023-04-09T15:42:51;100075.25;;;18.89;48.79
36788;BME280;22738;45.560;9.434;2023-04-09T15:49:34;100079.44;;;18.73;49.73
36788;BME280;22738;45.560;9.434;2023-04-09T15:56:16;100084.47;;;18.57;49.39
36788;BME280;22738;45.560;9.434;2023-04-09T16:02:57;100084.31;;;18.95;48.61
36788;BME280;22738;45.560;9.434;2023-04-09T16:09:38;100081.16;;;18.55;50.49
36788;BME280;22738;45.560;9.434;2023-04-09T16:16:19;100084.44;;;18.66;50.63
36788;BME280;22738;45.560;9.434;2023-04-09T16:23:00;100091.81;;;18.53;50.64
36788;BME280;22738;45.560;9.434;2023-04-09T16:29:42;100079.84;;;18.12;51.05
36788;BME280;22738;45.560;9.434;2023-04-09T16:36:23;100086.03;;;18.02;50.68
36788;BME280;22738;45.560;9.434;2023-04-09T16:43:04;100084.38;;;17.91;51.68
36788;BME280;22738;45.560;9.434;2023-04-09T16:49:45;100086.59;;;17.67;52.02
36788;BME280;22738;45.560;9.434;2023-04-09T16:56:26;100091.16;;;17.65;54.55
36788;BME280;22738;45.560;9.434;2023-04-09T17:03:07;100104.03;;;17.47;54.09
36788;BME280;22738;45.560;9.434;2023-04-09T17:09:48;100110.63;;;17.32;54.29
36788;BME280;22738;45.560;9.434;2023-04-09T17:16:29;100120.28;;;17.32;54.07
36788;BME280;22738;45.560;9.434;2023-04-09T17:23:10;100121.03;;;17.13;54.62
36788;BME280;22738;45.560;9.434;2023-04-09T17:29:52;100130.44;;;16.85;56.01
36788;BME280;22738;45.560;9.434;2023-04-09T17:36:33;100128.66;;;16.65;57.92
36788;BME280;22738;45.560;9.434;2023-04-09T17:43:14;100135.06;;;16.40;59.57
36788;BME280;22738;45.560;9.434;2023-04-09T17:49:55;100141.91;;;16.32;61.84
36788;BME280;22738;45.560;9.434;2023-04-09T17:56:36;100144.72;;;16.19;65.85
36788;BME280;22738;45.560;9.434;2023-04-09T18:03:18;100161.56;;;15.84;72.47
36788;BME280;22738;45.560;9.434;2023-04-09T18:10:05;100190.34;;;15.84;77.66
36788;BME280;22738;45.560;9.434;2023-04-09T18:16:46;100189.53;;;15.72;85.48
36788;BME280;22738;45.560;9.434;2023-04-09T18:23:28;100197.53;;;15.48;93.04
36788;BME280;22738;45.560;9.434;2023-04-09T18:30:09;100217.22;;;15.30;97.58
36788;BME280;22738;45.560;9.434;2023-04-09T18:36:53;100216.59;;;15.27;98.93
36788;BME280;22738;45.560;9.434;2023-04-09T18:43:34;100241.16;;;15.13;100.00
36788;BME280;22738;45.560;9.434;2023-04-09T18:50:15;100254.44;;;14.99;100.00
36788;BME280;22738;45.560;9.434;2023-04-09T18:56:57;100273.34;;;14.79;100.00
36788;BME280;22738;45.560;9.434;2023-04-09T19:03:39;100292.47;;;14.56;100.00
36788;BME280;22738;45.560;9.434;2023-04-09T19:10:22;100295.91;;;14.33;100.00
36788;BME280;22738;45.560;9.434;2023-04-09T19:17:03;100309.50;;;14.12;100.00
36788;BME280;22738;45.560;9.434;2023-04-09T19:23:44;100317.75;;;14.06;100.00
36788;BME280;22738;45.560;9.434;2023-04-09T19:30:27;100328.53;;;13.89;100.00
36788;BME280;22738;45.560;9.434;2023-04-09T19:37:08;100351.66;;;13.81;100.00
36788;BME280;22738;45.560;9.434;2023-04-09T19:43:49;100357.09;;;13.66;100.00
36788;BME280;22738;45.560;9.434;2023-04-09T19:50:33;100363.13;;;13.66;100.00
36788;BME280;22738;45.560;9.434;2023-04-09T19:57:15;100368.78;;;13.60;100.00
36788;BME280;22738;45.560;9.434;2023-04-09T20:03:58;100375.44;;;13.64;100.00
36788;BME280;22738;45.560;9.434;2023-04-09T20:10:39;100382.69;;;13.34;100.00
36788;BME280;22738;45.560;9.434;2023-04-09T20:17:22;100391.75;;;13.28;100.00
36788;BME280;22738;45.560;9.434;2023-04-09T20:24:03;100394.91;;;13.07;100.00
36788;BME280;22738;45.560;9.434;2023-04-09T20:30:44;100411.53;;;13.04;100.00
36788;BME280;22738;45.560;9.434;2023-04-09T20:37:26;100405.31;;;13.07;100.00
36788;BME280;22738;45.560;9.434;2023-04-09T20:44:07;100415.91;;;13.04;100.00
36788;BME280;22738;45.560;9.434;2023-04-09T20:50:48;100424.84;;;13.00;100.00
36788;BME280;22738;45.560;9.434;2023-04-09T20:57:29;100431.88;;;12.85;100.00
36788;BME280;22738;45.560;9.434;2023-04-09T21:04:10;100437.84;;;12.73;100.00
36788;BME280;22738;45.560;9.434;2023-04-09T21:10:51;100439.97;;;12.80;100.00
36788;BME280;22738;45.560;9.434;2023-04-09T21:17:32;100444.00;;;12.72;100.00
36788;BME280;22738;45.560;9.434;2023-04-09T21:24:13;100448.69;;;12.79;100.00
36788;BME280;22738;45.560;9.434;2023-04-09T21:30:55;100453.53;;;12.85;100.00
36788;BME280;22738;45.560;9.434;2023-04-09T21:37:36;100453.19;;;12.63;100.00
36788;BME280;22738;45.560;9.434;2023-04-09T21:44:18;100459.16;;;12.51;100.00
36788;BME280;22738;45.560;9.434;2023-04-09T21:51:00;100458.03;;;12.55;100.00
36788;BME280;22738;45.560;9.434;2023-04-09T21:57:41;100464.53;;;12.62;100.00
36788;BME280;22738;45.560;9.434;2023-04-09T22:04:21;100472.44;;;12.47;100.00
36788;BME280;22738;45.560;9.434;2023-04-09T22:11:03;100470.28;;;12.39;100.00
36788;BME280;22738;45.560;9.434;2023-04-09T22:17:44;100478.56;;;12.32;100.00
36788;BME280;22738;45.560;9.434;2023-04-09T22:24:26;100478.94;;;12.26;100.00
36788;BME280;22738;45.560;9.434;2023-04-09T22:31:09;100483.19;;;12.27;100.00
36788;BME280;22738;45.560;9.434;2023-04-09T22:37:50;100492.59;;;12.15;100.00
36788;BME280;22738;45.560;9.434;2023-04-09T22:44:31;100489.03;;;12.16;100.00
36788;BME280;22738;45.560;9.434;2023-04-09T22:51:12;100497.66;;;12.02;100.00
36788;BME280;22738;45.560;9.434;2023-04-09T22:57:55;100502.91;;;11.87;100.00
36788;BME280;22738;45.560;9.434;2023-04-09T23:04:37;100495.75;;;11.76;100.00
36788;BME280;22738;45.560;9.434;2023-04-09T23:11:18;100502.13;;;11.71;100.00
36788;BME280;22738;45.560;9.434;2023-04-09T23:17:59;100494.75;;;11.63;100.00
36788;BME280;22738;45.560;9.434;2023-04-09T23:24:40;100499.88;;;11.65;100.00
36788;BME280;22738;45.560;9.434;2023-04-09T23:31:21;100500.03;;;11.62;100.00
36788;BME280;22738;45.560;9.434;2023-04-09T23:38:02;100496.66;;;11.75;100.00
36788;BME280;22738;45.560;9.434;2023-04-09T23:44:43;100503.97;;;11.69;100.00
36788;BME280;22738;45.560;9.434;2023-04-09T23:51:24;100505.91;;;11.49;100.00
36788;BME280;22738;45.560;9.434;2023-04-09T23:58:06;100499.81;;;11.51;100.00
